createdAt,value
2019-05-16T00:02:31.170Z,100663.25
2019-05-16T00:05:34.097Z,100669.33
2019-05-16T00:08:38.812Z,100671.09
2019-05-16T00:11:42.276Z,100664.09
2019-05-16T00:14:45.182Z,100660.42
2019-05-16T00:17:48.885Z,100658.00
2019-05-16T00:20:53.115Z,100651.46
2019-05-16T00:23:56.052Z,100646.06
2019-05-16T00:26:59.094Z,100646.98
2019-05-16T00:30:02.020Z,100646.47
2019-05-16T00:33:08.330Z,100638.92
2019-05-16T00:36:11.497Z,100641.23
2019-05-16T00:39:14.508Z,100641.14
2019-05-16T00:42:17.989Z,100640.17
2019-05-16T00:45:21.461Z,100637.26
2019-05-16T00:48:24.387Z,100631.09
2019-05-16T00:51:29.797Z,100624.20
2019-05-16T00:54:32.755Z,100630.02
2019-05-16T00:57:38.627Z,100626.34
2019-05-16T01:00:49.989Z,100620.55
2019-05-16T01:03:53.412Z,100618.63
2019-05-16T01:06:58.571Z,100620.52
2019-05-16T01:10:01.263Z,100626.06
2019-05-16T01:13:04.160Z,100620.70
2019-05-16T01:16:08.643Z,100624.55
2019-05-16T01:19:11.826Z,100615.05
2019-05-16T01:22:14.728Z,100612.72
2019-05-16T01:25:19.512Z,100609.19
2019-05-16T01:28:22.659Z,100605.30
2019-05-16T01:31:27.827Z,100601.42
2019-05-16T01:34:30.397Z,100598.62
2019-05-16T01:37:33.293Z,100585.80
2019-05-16T01:40:38.549Z,100579.03
2019-05-16T01:43:41.437Z,100581.49
2019-05-16T01:46:44.679Z,100574.58
2019-05-16T01:49:48.805Z,100577.25
2019-05-16T01:52:51.835Z,100577.33
2019-05-16T01:55:54.779Z,100568.84
2019-05-16T01:58:58.267Z,100567.52
2019-05-16T02:02:01.405Z,100557.53
2019-05-16T02:05:04.808Z,100549.39
2019-05-16T02:08:08.791Z,100556.78
2019-05-16T02:11:12.438Z,100551.80
2019-05-16T02:14:17.605Z,100548.02
2019-05-16T02:17:20.170Z,100555.16
2019-05-16T02:20:23.067Z,100551.44
2019-05-16T02:23:27.774Z,100546.48
2019-05-16T02:26:31.744Z,100531.28
2019-05-16T02:29:34.662Z,100530.34
2019-05-16T02:32:37.582Z,100528.15
2019-05-16T02:35:40.764Z,100527.33
2019-05-16T02:38:44.080Z,100528.30
2019-05-16T02:41:47.106Z,100524.95
2019-05-16T02:44:51.200Z,100525.84
2019-05-16T02:47:54.327Z,100518.00
2019-05-16T02:50:57.264Z,100516.68
2019-05-16T02:54:01.385Z,100506.96
2019-05-16T02:57:04.518Z,100511.74
2019-05-16T03:00:12.083Z,100514.24
2019-05-16T03:03:14.307Z,100509.81
2019-05-16T03:06:20.924Z,100511.03
2019-05-16T03:09:24.038Z,100500.00
2019-05-16T03:12:30.933Z,100503.98
2019-05-16T03:15:33.869Z,100503.50
2019-05-16T03:18:41.395Z,100500.16
2019-05-16T03:21:45.942Z,100495.17
2019-05-16T03:24:51.552Z,100491.31
2019-05-16T03:27:53.747Z,100491.86
2019-05-16T03:30:56.667Z,100488.14
2019-05-16T03:34:07.007Z,100490.54
2019-05-16T03:37:05.625Z,100490.44
2019-05-16T03:40:11.031Z,100486.17
2019-05-16T03:43:13.461Z,100481.25
2019-05-16T03:46:21.206Z,100484.91
2019-05-16T03:49:22.907Z,100485.97
2019-05-16T03:52:25.833Z,100485.45
2019-05-16T03:55:32.101Z,100484.31
2019-05-16T03:58:34.926Z,100486.80
2019-05-16T04:01:40.681Z,100486.50
2019-05-16T04:04:42.695Z,100482.16
2019-05-16T04:07:45.992Z,100479.69
2019-05-16T04:10:51.703Z,100471.42
2019-05-16T04:13:54.120Z,100471.80
2019-05-16T04:17:01.370Z,100468.58
2019-05-16T04:20:05.906Z,100468.77
2019-05-16T04:23:11.255Z,100471.85
2019-05-16T04:26:13.624Z,100467.87
2019-05-16T04:29:16.588Z,100476.81
2019-05-16T04:32:20.832Z,100473.55
2019-05-16T04:35:24.216Z,100468.36
2019-05-16T04:38:39.101Z,100471.34
2019-05-16T04:41:32.261Z,100474.34
2019-05-16T04:44:35.179Z,100474.30
2019-05-16T04:47:41.280Z,100481.41
2019-05-16T04:50:43.238Z,100469.67
2019-05-16T04:53:46.436Z,100469.22
2019-05-16T04:56:51.388Z,100466.17
2019-05-16T04:59:54.553Z,100470.14
2019-05-16T05:03:01.121Z,100464.84
2019-05-16T05:06:02.625Z,100473.67
2019-05-16T05:09:06.153Z,100467.42
2019-05-16T05:12:11.441Z,100467.19
2019-05-16T05:15:14.012Z,100463.55
2019-05-16T05:18:16.929Z,100471.66
2019-05-16T05:21:20.895Z,100473.48
2019-05-16T05:24:24.390Z,100469.00
2019-05-16T05:27:27.553Z,100469.64
2019-05-16T05:30:30.519Z,100468.97
2019-05-16T05:33:33.443Z,100465.53
2019-05-16T05:36:36.369Z,100464.58
2019-05-16T05:39:39.721Z,100455.70
2019-05-16T05:42:42.799Z,100456.58
2019-05-16T05:45:46.826Z,100454.30
2019-05-16T05:48:50.488Z,100452.98
2019-05-16T05:51:53.667Z,100447.25
2019-05-16T05:54:56.954Z,100455.70
2019-05-16T05:58:01.049Z,100457.23
2019-05-16T06:01:04.106Z,100458.91
2019-05-16T06:04:07.030Z,100453.87
2019-05-16T06:07:10.320Z,100457.26
2019-05-16T06:10:13.454Z,100461.11
2019-05-16T06:13:16.363Z,100459.61
2019-05-16T06:16:20.498Z,100465.42
2019-05-16T06:19:23.618Z,100463.20
2019-05-16T06:22:26.533Z,100459.61
2019-05-16T06:25:31.421Z,100461.45
2019-05-16T06:28:34.274Z,100461.66
2019-05-16T06:31:37.242Z,100455.03
2019-05-16T06:34:41.538Z,100455.93
2019-05-16T06:37:44.457Z,100454.52
2019-05-16T06:40:49.855Z,100448.88
2019-05-16T06:43:52.191Z,100451.59
2019-05-16T06:47:09.973Z,100443.25
2019-05-16T06:50:00.490Z,100442.62
2019-05-16T06:53:03.499Z,100441.34
2019-05-16T06:56:06.424Z,100434.23
2019-05-16T06:59:10.431Z,100435.41
2019-05-16T07:02:26.604Z,100434.62
2019-05-16T07:05:20.561Z,100425.08
2019-05-16T07:08:23.447Z,100425.95
2019-05-16T07:11:26.388Z,100423.45
2019-05-16T07:14:31.341Z,100426.44
2019-05-16T07:17:34.219Z,100428.65
2019-05-16T07:20:37.151Z,100430.76
2019-05-16T07:23:40.571Z,100418.60
2019-05-16T07:26:43.697Z,100411.89
2019-05-16T07:29:46.686Z,100403.17
2019-05-16T07:32:50.112Z,100401.62
2019-05-16T07:35:53.160Z,100398.38
2019-05-16T07:38:57.082Z,100388.17
2019-05-16T07:42:00.097Z,100387.66
2019-05-16T07:45:03.906Z,100388.24
2019-05-16T07:48:06.828Z,100383.11
2019-05-16T07:51:10.497Z,100381.72
2019-05-16T07:54:13.657Z,100378.16
2019-05-16T07:57:20.393Z,100377.08
2019-05-16T08:00:22.065Z,100376.91
2019-05-16T08:03:26.255Z,100377.49
2019-05-16T08:06:33.694Z,100373.66
2019-05-16T08:09:34.391Z,100373.41
2019-05-16T08:12:37.313Z,100377.14
2019-05-16T08:15:40.739Z,100373.20
2019-05-16T08:18:45.192Z,100375.73
2019-05-16T08:21:50.509Z,100371.30
2019-05-16T08:24:53.557Z,100375.74
2019-05-16T08:27:56.495Z,100378.66
2019-05-16T08:31:00.930Z,100379.31
2019-05-16T08:34:04.285Z,100372.48
2019-05-16T08:37:30.645Z,100366.09
2019-05-16T08:40:12.795Z,100362.23
2019-05-16T08:43:15.718Z,100361.48
2019-05-16T08:46:20.722Z,100363.59
2019-05-16T08:49:23.860Z,100352.25
2019-05-16T08:52:27.267Z,100350.80
2019-05-16T08:55:31.396Z,100349.88
2019-05-16T08:58:34.521Z,100352.69
2019-05-16T09:01:51.607Z,100344.83
2019-05-16T09:04:44.464Z,100344.02
2019-05-16T09:07:48.008Z,100338.28
2019-05-16T09:11:00.742Z,100338.97
2019-05-16T09:13:57.310Z,100330.28
2019-05-16T09:17:00.388Z,100325.57
2019-05-16T09:20:07.385Z,100327.55
2019-05-16T09:23:10.085Z,100324.84
2019-05-16T09:26:19.310Z,100316.22
2019-05-16T09:29:18.137Z,100314.47
2019-05-16T09:32:22.073Z,100310.72
2019-05-16T09:35:28.083Z,100314.31
2019-05-16T09:38:30.548Z,100312.64
2019-05-16T09:41:47.773Z,100310.81
2019-05-16T09:44:38.264Z,100311.28
2019-05-16T09:47:41.223Z,100308.68
2019-05-16T09:50:44.141Z,100308.84
2019-05-16T09:53:47.229Z,100306.92
2019-05-16T09:56:51.215Z,100304.53
2019-05-16T09:59:54.127Z,100305.63
2019-05-16T10:02:57.935Z,100305.18
2019-05-16T10:06:01.181Z,100299.68
2019-05-16T10:09:06.423Z,100295.20
2019-05-16T10:12:15.328Z,100289.02
2019-05-16T10:15:17.632Z,100285.81
2019-05-16T10:18:20.773Z,100278.05
2019-05-16T10:21:23.680Z,100281.02
2019-05-16T10:24:26.967Z,100264.59
2019-05-16T10:27:30.084Z,100264.80
2019-05-16T10:30:33.014Z,100267.72
2019-05-16T10:33:39.083Z,100262.89
2019-05-16T10:36:42.628Z,100258.11
2019-05-16T10:39:46.897Z,100250.89
2019-05-16T10:42:50.072Z,100247.34
2019-05-16T10:45:53.843Z,100249.24
2019-05-16T10:48:57.744Z,100252.59
2019-05-16T10:52:00.990Z,100249.61
2019-05-16T10:55:07.885Z,100250.28
2019-05-16T10:58:10.187Z,100243.94
2019-05-16T11:01:24.554Z,100241.81
2019-05-16T11:04:28.549Z,100238.23
2019-05-16T11:07:22.985Z,100244.58
2019-05-16T11:10:26.858Z,100237.45
2019-05-16T11:13:30.805Z,100232.36
2019-05-16T11:16:33.750Z,100225.98
2019-05-16T11:19:37.273Z,100221.98
2019-05-16T11:22:40.287Z,100224.00
2019-05-16T11:25:43.219Z,100234.34
2019-05-16T11:28:48.589Z,100232.08
2019-05-16T11:31:51.160Z,100226.25
2019-05-16T11:34:54.090Z,100225.98
2019-05-16T11:37:57.565Z,100222.53
2019-05-16T11:41:01.493Z,100219.39
2019-05-16T11:44:06.673Z,100209.79
2019-05-16T11:47:10.364Z,100209.48
2019-05-16T11:50:17.785Z,100204.15
2019-05-16T11:53:19.834Z,100205.91
2019-05-16T11:56:23.096Z,100200.75
2019-05-16T11:59:26.007Z,100203.88
2019-05-16T12:02:29.898Z,100206.95
2019-05-16T12:05:32.949Z,100197.86
2019-05-16T12:08:37.107Z,100189.31
2019-05-16T12:11:40.180Z,100191.28
2019-05-16T12:14:43.121Z,100181.73
2019-05-16T12:18:00.279Z,100176.30
2019-05-16T12:20:51.780Z,100177.56
2019-05-16T12:23:54.733Z,100173.88
2019-05-16T12:27:00.749Z,100175.42
2019-05-16T12:30:02.855Z,100171.17
2019-05-16T12:33:07.444Z,100173.73
2019-05-16T12:36:10.490Z,100169.09
2019-05-16T12:39:14.020Z,100161.38
2019-05-16T12:42:17.003Z,100167.46
2019-05-16T12:45:20.674Z,100162.20
2019-05-16T12:48:23.608Z,100158.61
2019-05-16T12:51:26.622Z,100153.80
2019-05-16T12:54:29.599Z,100152.59
2019-05-16T12:57:32.526Z,100148.30
2019-05-16T13:00:37.078Z,100153.52
2019-05-16T13:03:40.630Z,100152.27
2019-05-16T13:06:43.872Z,100151.59
2019-05-16T13:09:49.951Z,100139.02
2019-05-16T13:12:51.665Z,100136.82
2019-05-16T13:15:54.601Z,100134.80
2019-05-16T13:18:57.516Z,100132.34
2019-05-16T13:22:00.869Z,100133.86
2019-05-16T13:25:07.150Z,100124.16
2019-05-16T13:28:09.190Z,100117.14
2019-05-16T13:31:12.122Z,100112.55
2019-05-16T13:34:17.859Z,100103.43
2019-05-16T13:37:19.871Z,100106.66
2019-05-16T13:40:22.914Z,100106.16
2019-05-16T13:43:27.019Z,100094.55
2019-05-16T13:46:30.097Z,100091.02
2019-05-16T13:49:33.008Z,100094.18
2019-05-16T13:52:36.556Z,100083.14
2019-05-16T13:55:39.553Z,100073.66
2019-05-16T13:58:42.580Z,100065.31
2019-05-16T14:01:45.499Z,100063.66
2019-05-16T14:04:48.443Z,100059.34
2019-05-16T14:07:51.749Z,100056.59
2019-05-16T14:11:00.761Z,100060.35
2019-05-16T14:13:59.822Z,100056.83
2019-05-16T14:17:02.729Z,100052.48
2019-05-16T14:20:14.563Z,100056.34
2019-05-16T14:23:13.395Z,100041.92
2019-05-16T14:26:17.409Z,100043.34
2019-05-16T14:29:20.358Z,100029.50
2019-05-16T14:32:23.271Z,100027.41
2019-05-16T14:35:26.757Z,100016.80
2019-05-16T14:38:29.898Z,100012.63
2019-05-16T14:41:33.872Z,100007.48
2019-05-16T14:44:57.762Z,99997.02
2019-05-16T14:47:41.601Z,100000.91
2019-05-16T14:50:47.092Z,99991.88
2019-05-16T14:53:49.355Z,99987.31
2019-05-16T14:56:52.302Z,99989.16
2019-05-16T14:59:56.522Z,99987.29
2019-05-16T15:02:59.556Z,99990.06
2019-05-16T15:06:02.492Z,99980.69
2019-05-16T15:09:07.610Z,99990.56
2019-05-16T15:12:10.739Z,99988.30
2019-05-16T15:15:21.096Z,99977.26
2019-05-16T15:18:20.303Z,99976.37
2019-05-16T15:21:23.242Z,99969.16
2019-05-16T15:24:26.836Z,99967.07
2019-05-16T15:27:30.298Z,99960.64
2019-05-16T15:30:33.238Z,99952.34
2019-05-16T15:33:36.644Z,99949.68
2019-05-16T15:36:39.697Z,99943.69
2019-05-16T15:39:42.953Z,99943.31
2019-05-16T15:42:45.894Z,99939.37
2019-05-16T15:45:52.731Z,99940.33
2019-05-16T15:48:53.958Z,99940.49
2019-05-16T15:51:57.412Z,99935.66
2019-05-16T15:55:01.229Z,99928.50
2019-05-16T15:58:07.474Z,99923.83
2019-05-16T16:01:09.290Z,99922.45
2019-05-16T16:04:12.280Z,99918.97
2019-05-16T16:07:17.837Z,99920.33
2019-05-16T16:10:28.338Z,99911.55
2019-05-16T16:13:31.575Z,99910.57
2019-05-16T16:16:34.876Z,99910.69
2019-05-16T16:19:38.904Z,99906.53
2019-05-16T16:22:41.924Z,99903.51
2019-05-16T16:25:49.673Z,99896.75
2019-05-16T16:28:49.745Z,99889.85
2019-05-16T16:31:53.018Z,99892.77
2019-05-16T16:34:57.566Z,99880.53
2019-05-16T16:38:00.705Z,99882.79
2019-05-16T16:41:03.765Z,99880.78
2019-05-16T16:44:07.668Z,99881.24
2019-05-16T16:47:11.212Z,99875.65
2019-05-16T16:50:17.082Z,99875.84
2019-05-16T16:53:20.254Z,99875.12
2019-05-16T16:56:23.178Z,99873.86
2019-05-16T16:59:28.056Z,99858.27
2019-05-16T17:02:32.014Z,99865.03
2019-05-16T17:05:37.192Z,99860.33
2019-05-16T17:08:41.592Z,99867.36
2019-05-16T17:11:46.570Z,99865.55
2019-05-16T17:14:49.411Z,99859.13
2019-05-16T17:17:52.740Z,99853.70
2019-05-16T17:20:57.016Z,99855.78
2019-05-16T17:24:00.200Z,99853.31
2019-05-16T17:27:03.133Z,99852.17
2019-05-16T17:30:16.881Z,99843.55
2019-05-16T17:33:20.096Z,99843.98
2019-05-16T17:36:23.018Z,99840.73
2019-05-16T17:39:27.491Z,99841.69
2019-05-16T17:42:30.565Z,99834.15
2019-05-16T17:45:34.430Z,99838.25
2019-05-16T17:48:38.365Z,99831.83
2019-05-16T17:51:41.642Z,99827.89
2019-05-16T17:54:44.673Z,99828.95
2019-05-16T17:57:47.936Z,99831.54
2019-05-16T18:00:50.850Z,99828.91
2019-05-16T18:03:57.234Z,99827.39
2019-05-16T18:07:00.114Z,99816.69
2019-05-16T18:10:04.085Z,99813.82
2019-05-16T18:13:08.088Z,99814.11
2019-05-16T18:16:11.505Z,99814.70
2019-05-16T18:19:14.512Z,99807.12
2019-05-16T18:22:17.436Z,99806.59
2019-05-16T18:25:20.438Z,99813.14
2019-05-16T18:28:23.358Z,99808.88
2019-05-16T18:31:26.951Z,99811.86
2019-05-16T18:34:29.871Z,99803.14
2019-05-16T18:37:33.461Z,99802.23
2019-05-16T18:40:36.932Z,99798.28
2019-05-16T18:43:40.429Z,99795.45
2019-05-16T18:46:43.413Z,99788.89
2019-05-16T18:49:47.455Z,99787.94
2019-05-16T18:52:50.493Z,99783.67
2019-05-16T18:55:53.548Z,99784.49
2019-05-16T18:58:57.377Z,99778.50
2019-05-16T19:02:01.530Z,99777.39
2019-05-16T19:05:06.917Z,99773.91
2019-05-16T19:08:10.037Z,99778.59
2019-05-16T19:11:13.016Z,99770.62
2019-05-16T19:14:16.946Z,99773.41
2019-05-16T19:17:24.237Z,99770.98
2019-05-16T19:20:26.371Z,99768.05
2019-05-16T19:23:29.529Z,99769.19
2019-05-16T19:26:32.488Z,99762.56
2019-05-16T19:29:36.828Z,99768.78
2019-05-16T19:32:39.962Z,99766.44
2019-05-16T19:35:42.888Z,99765.89
2019-05-16T19:38:46.563Z,99771.11
2019-05-16T19:41:49.627Z,99765.84
2019-05-16T19:44:52.908Z,99765.97
2019-05-16T19:47:57.822Z,99761.17
2019-05-16T19:51:01.221Z,99761.69
2019-05-16T19:54:06.994Z,99764.64
2019-05-16T19:57:09.687Z,99758.56
2019-05-16T20:00:13.616Z,99759.09
2019-05-16T20:03:16.963Z,99754.80
2019-05-16T20:06:19.880Z,99754.42
2019-05-16T20:09:22.810Z,99756.13
2019-05-16T20:12:26.296Z,99752.59
2019-05-16T20:15:30.453Z,99746.32
2019-05-16T20:18:33.407Z,99748.56
2019-05-16T20:21:36.922Z,99747.14
2019-05-16T20:24:40.177Z,99745.34
2019-05-16T20:27:43.185Z,99743.84
2019-05-16T20:30:47.528Z,99742.13
2019-05-16T20:33:50.761Z,99736.08
2019-05-16T20:36:54.080Z,99742.95
2019-05-16T20:39:57.591Z,99736.31
2019-05-16T20:43:01.834Z,99735.10
2019-05-16T20:46:07.095Z,99729.56
2019-05-16T20:49:09.631Z,99732.70
2019-05-16T20:52:12.553Z,99728.72
2019-05-16T20:55:17.565Z,99725.00
2019-05-16T20:58:20.544Z,99724.41
2019-05-16T21:01:23.557Z,99730.33
2019-05-16T21:04:26.752Z,99724.52
2019-05-16T21:07:29.699Z,99719.16
2019-05-16T21:10:32.639Z,99713.62
2019-05-16T21:13:35.559Z,99714.38
2019-05-16T21:16:38.605Z,99712.93
2019-05-16T21:19:42.139Z,99710.88
2019-05-16T21:22:47.042Z,99705.02
2019-05-16T21:25:50.413Z,99710.19
2019-05-16T21:28:53.708Z,99703.33
2019-05-16T21:31:56.764Z,99701.44
2019-05-16T21:34:59.710Z,99703.45
2019-05-16T21:38:02.698Z,99690.60
2019-05-16T21:41:07.213Z,99691.15
2019-05-16T21:44:10.539Z,99691.34
2019-05-16T21:47:13.562Z,99691.52
2019-05-16T21:50:19.237Z,99691.37
2019-05-16T21:53:21.881Z,99693.76
2019-05-16T21:56:26.615Z,99699.54
2019-05-16T21:59:30.094Z,99699.02
2019-05-16T22:02:33.369Z,99685.56
2019-05-16T22:05:37.009Z,99681.80
2019-05-16T22:08:40.303Z,99679.11
2019-05-16T22:11:46.424Z,99671.13
2019-05-16T22:14:51.678Z,99673.64
2019-05-16T22:17:56.632Z,99671.55
2019-05-16T22:20:59.783Z,99661.08
2019-05-16T22:24:03.114Z,99662.33
2019-05-16T22:27:06.834Z,99656.93
2019-05-16T22:30:11.641Z,99653.08
2019-05-16T22:33:14.643Z,99651.56
2019-05-16T22:36:17.572Z,99651.84
2019-05-16T22:39:20.499Z,99650.61
2019-05-16T22:42:23.405Z,99650.31
2019-05-16T22:45:27.066Z,99643.59
2019-05-16T22:48:30.335Z,99644.19
2019-05-16T22:51:33.320Z,99641.17
2019-05-16T22:54:37.056Z,99631.34
2019-05-16T22:57:41.249Z,99629.59
2019-05-16T23:00:44.297Z,99630.92
2019-05-16T23:03:47.593Z,99632.36
2019-05-16T23:06:50.518Z,99628.91
2019-05-16T23:09:53.427Z,99626.42
2019-05-16T23:12:57.155Z,99626.83
2019-05-16T23:16:00.347Z,99622.83
2019-05-16T23:19:03.264Z,99614.90
2019-05-16T23:22:07.633Z,99614.90
2019-05-16T23:25:10.669Z,99611.64
2019-05-16T23:28:13.596Z,99610.81
2019-05-16T23:31:16.746Z,99604.31
2019-05-16T23:34:19.838Z,99609.64
2019-05-16T23:37:22.767Z,99598.59
2019-05-16T23:40:25.681Z,99597.05
2019-05-16T23:43:28.603Z,99595.55
2019-05-16T23:46:31.912Z,99591.94
2019-05-16T23:49:36.691Z,99590.48
2019-05-16T23:52:39.724Z,99583.66
2019-05-16T23:55:42.620Z,99582.59
2019-05-16T23:58:47.706Z,99577.62
